Cottonwood Heights, Utah
Current Conditions -  °F | °C
As of 7:53 AM on Saturday 20 Dec 2014 (Local Time) from KSLC Reporting Station
Broken Clouds Broken Clouds  
Wind Chill: 32°   Ceiling: 7000
Heat Index: 38°   Visibility: 10mi
Dew Point: 33°   Wind: 8mph
Humidity: 83%   Direction: 160°SSE
Pressure: 30.1"   Gusts: NA
Location:  40.5945°N, 111.827°W
Report Text: KSLC 201453Z 16007KT 10SM SCT049 BKN070 BKN200 03/01 A3010 RMK AO2 SLP191 VIRGA W-NW T00330006 56005
Loading
Personal Weather Stations






























Interactive Weather Map New forecast layout! Learn more

10-Day Weather Forecast

Advertisements
Track Severe Weather on mobile